createdAt,value
2023-04-19T00:00:55.682Z,51.14
2023-04-19T00:01:55.803Z,47.83
2023-04-19T00:02:55.810Z,45.40
2023-04-19T00:03:55.812Z,48.71
2023-04-19T00:04:55.865Z,43.89
2023-04-19T00:05:55.641Z,38.80
2023-04-19T00:06:55.668Z,44.40
2023-04-19T00:07:55.632Z,45.49
2023-04-19T00:08:55.634Z,51.90
2023-04-19T00:09:55.618Z,49.29
2023-04-19T00:10:55.608Z,45.48
2023-04-19T00:11:55.665Z,46.16
2023-04-19T00:12:55.588Z,49.76
2023-04-19T00:13:55.588Z,51.78
2023-04-19T00:14:55.570Z,47.40
2023-04-19T00:15:55.590Z,41.60
2023-04-19T00:16:55.629Z,40.26
2023-04-19T00:17:55.615Z,49.38
2023-04-19T00:18:55.544Z,52.92
2023-04-19T00:19:55.538Z,44.28
2023-04-19T00:20:55.522Z,47.00
2023-04-19T00:21:55.546Z,47.11
2023-04-19T00:22:55.510Z,44.21
2023-04-19T00:23:55.539Z,51.04
2023-04-19T00:24:55.488Z,59.17
2023-04-19T00:25:55.531Z,53.14
2023-04-19T00:26:55.510Z,42.59
2023-04-19T00:27:55.479Z,56.47
2023-04-19T00:28:55.488Z,42.59
2023-04-19T00:29:55.459Z,43.49
2023-04-19T00:30:55.587Z,55.74
2023-04-19T00:31:55.470Z,46.37
2023-04-19T00:32:55.471Z,48.96
2023-04-19T00:33:55.436Z,58.53
2023-04-19T00:34:55.417Z,41.28
2023-04-19T00:35:55.413Z,48.72
2023-04-19T00:36:55.436Z,57.66
2023-04-19T00:37:55.414Z,57.38
2023-04-19T00:38:55.384Z,44.37
2023-04-19T00:39:55.382Z,48.30
2023-04-19T00:40:55.387Z,52.28
2023-04-19T00:41:56.178Z,42.03
2023-04-19T00:42:55.358Z,40.55
2023-04-19T00:43:55.366Z,44.32
2023-04-19T00:44:55.348Z,43.33
2023-04-19T00:45:55.413Z,42.17
2023-04-19T00:46:55.358Z,44.64
2023-04-19T00:47:55.370Z,58.50
2023-04-19T00:48:55.309Z,44.66
2023-04-19T00:49:55.307Z,52.75
2023-04-19T00:50:55.299Z,49.65
2023-04-19T00:51:55.328Z,51.61
2023-04-19T00:52:55.276Z,47.39
2023-04-19T00:53:55.280Z,42.03
2023-04-19T00:54:55.272Z,42.56
2023-04-19T00:55:55.255Z,40.04
2023-04-19T00:56:55.257Z,42.35
2023-04-19T00:57:55.298Z,47.50
2023-04-19T00:58:55.244Z,45.97
2023-04-19T00:59:55.226Z,48.92
2023-04-19T01:00:55.222Z,59.24
2023-04-19T01:01:55.325Z,46.17
2023-04-19T01:02:55.317Z,40.53
2023-04-19T01:03:55.294Z,46.58
2023-04-19T01:04:55.252Z,57.28
2023-04-19T01:05:55.285Z,47.47
2023-04-19T01:06:55.166Z,40.93
2023-04-19T01:07:55.186Z,46.80
2023-04-19T01:08:55.158Z,50.90
2023-04-19T01:09:55.146Z,47.30
2023-04-19T01:10:55.140Z,43.06
2023-04-19T01:11:55.127Z,46.23
2023-04-19T01:12:55.156Z,40.22
2023-04-19T01:13:55.119Z,43.75
2023-04-19T01:14:55.112Z,48.14
2023-04-19T01:15:55.164Z,39.94
2023-04-19T01:16:55.124Z,42.48
2023-04-19T01:17:55.206Z,44.34
2023-04-19T01:18:55.086Z,44.96
2023-04-19T01:19:55.069Z,46.22
2023-04-19T01:20:55.083Z,40.04
2023-04-19T01:21:55.069Z,41.11
2023-04-19T01:22:55.089Z,50.54
2023-04-19T01:23:55.040Z,41.26
2023-04-19T01:24:55.037Z,43.82
2023-04-19T01:25:55.032Z,47.20
2023-04-19T01:26:55.018Z,55.88
2023-04-19T01:27:55.048Z,39.77
2023-04-19T01:28:55.004Z,42.84
2023-04-19T01:29:55.000Z,48.53
2023-04-19T01:30:55.001Z,59.23
2023-04-19T01:31:54.986Z,49.04
2023-04-19T01:32:55.058Z,44.59
2023-04-19T01:33:54.966Z,59.20
2023-04-19T01:34:54.968Z,58.06
2023-04-19T01:35:54.966Z,51.37
2023-04-19T01:36:54.938Z,44.88
2023-04-19T01:37:54.956Z,47.69
2023-04-19T01:38:54.931Z,46.60
2023-04-19T01:39:54.912Z,50.65
2023-04-19T01:40:54.900Z,54.17
2023-04-19T01:41:55.900Z,58.83
2023-04-19T01:42:54.973Z,47.52
2023-04-19T01:43:54.878Z,47.96
2023-04-19T01:44:54.944Z,47.72
2023-04-19T01:45:54.880Z,59.08
2023-04-19T01:46:54.927Z,54.49
2023-04-19T01:47:54.965Z,55.00
2023-04-19T01:48:54.845Z,51.32
2023-04-19T01:49:54.848Z,53.46
2023-04-19T01:50:54.830Z,58.76
2023-04-19T01:51:54.834Z,44.93
2023-04-19T01:52:54.839Z,42.90
2023-04-19T01:53:54.892Z,42.67
2023-04-19T01:54:54.802Z,62.44
2023-04-19T01:55:54.797Z,50.53
2023-04-19T01:56:54.783Z,51.32
2023-04-19T01:57:54.893Z,58.78
2023-04-19T01:58:54.773Z,47.81
2023-04-19T01:59:54.763Z,46.66
2023-04-19T02:00:54.764Z,47.45
2023-04-19T02:01:54.883Z,43.59
2023-04-19T02:02:54.871Z,47.48
2023-04-19T02:03:54.862Z,48.36
2023-04-19T02:04:54.736Z,55.50
2023-04-19T02:05:54.730Z,49.99
2023-04-19T02:06:54.710Z,40.64
2023-04-19T02:07:54.729Z,48.93
2023-04-19T02:08:54.690Z,51.32
2023-04-19T02:09:54.696Z,46.68
2023-04-19T02:10:54.684Z,58.81
2023-04-19T02:11:54.691Z,44.66
2023-04-19T02:12:54.698Z,52.95
2023-04-19T02:13:54.664Z,43.89
2023-04-19T02:14:55.649Z,40.10
2023-04-19T02:15:54.686Z,45.47
2023-04-19T02:16:54.689Z,50.54
2023-04-19T02:17:54.666Z,57.59
2023-04-19T02:18:54.623Z,59.34
2023-04-19T02:19:54.625Z,54.84
2023-04-19T02:20:54.604Z,52.94
2023-04-19T02:21:54.607Z,51.54
2023-04-19T02:22:54.621Z,46.98
2023-04-19T02:23:54.582Z,50.82
2023-04-19T02:24:54.572Z,47.24
2023-04-19T02:25:54.583Z,54.20
2023-04-19T02:26:54.551Z,45.75
2023-04-19T02:27:54.571Z,45.12
2023-04-19T02:28:54.544Z,50.84
2023-04-19T02:29:54.559Z,49.34
2023-04-19T02:30:54.526Z,50.88
2023-04-19T02:31:54.583Z,53.42
2023-04-19T02:32:54.547Z,55.92
2023-04-19T02:33:54.511Z,49.91
2023-04-19T02:34:54.500Z,52.55
2023-04-19T02:35:54.525Z,51.21
2023-04-19T02:36:54.477Z,45.43
2023-04-19T02:37:54.504Z,60.15
2023-04-19T02:38:54.464Z,56.72
2023-04-19T02:39:54.469Z,49.54
2023-04-19T02:40:54.458Z,55.35
2023-04-19T02:41:54.446Z,58.56
2023-04-19T02:42:54.502Z,51.94
2023-04-19T02:43:54.423Z,53.47
2023-04-19T02:44:54.429Z,46.94
2023-04-19T02:45:54.433Z,53.23
2023-04-19T02:46:54.417Z,59.42
2023-04-19T02:47:54.480Z,49.53
2023-04-19T02:48:54.395Z,53.16
2023-04-19T02:49:54.445Z,58.72
2023-04-19T02:50:54.379Z,52.31
2023-04-19T02:51:54.369Z,50.50
2023-04-19T02:52:54.401Z,48.78
2023-04-19T02:53:54.348Z,59.39
2023-04-19T02:54:54.343Z,52.77
2023-04-19T02:55:54.351Z,53.83
2023-04-19T02:56:54.333Z,50.89
2023-04-19T02:57:54.359Z,52.98
2023-04-19T02:58:54.308Z,53.70
2023-04-19T02:59:54.299Z,55.07
2023-04-19T03:00:54.348Z,57.61
2023-04-19T03:01:54.322Z,51.32
2023-04-19T03:02:54.487Z,57.01
2023-04-19T03:03:54.380Z,59.69
2023-04-19T03:04:54.269Z,51.63
2023-04-19T03:05:54.254Z,58.96
2023-04-19T03:06:54.278Z,49.78
2023-04-19T03:07:54.270Z,52.68
2023-04-19T03:08:54.288Z,50.71
2023-04-19T03:09:54.254Z,55.48
2023-04-19T03:10:54.236Z,53.94
2023-04-19T03:11:54.222Z,51.43
2023-04-19T03:12:54.237Z,56.39
2023-04-19T03:13:54.227Z,62.75
2023-04-19T03:14:54.194Z,55.79
2023-04-19T03:15:54.193Z,56.40
2023-04-19T03:16:55.177Z,60.51
2023-04-19T03:17:54.244Z,55.11
2023-04-19T03:18:54.172Z,54.01
2023-04-19T03:19:54.150Z,58.77
2023-04-19T03:20:54.149Z,59.03
2023-04-19T03:21:54.262Z,53.82
2023-04-19T03:22:54.190Z,59.26
2023-04-19T03:23:54.120Z,55.98
2023-04-19T03:24:54.111Z,53.92
2023-04-19T03:25:54.102Z,56.21
2023-04-19T03:26:54.097Z,57.52
2023-04-19T03:27:54.114Z,56.05
2023-04-19T03:28:54.111Z,58.38
2023-04-19T03:29:54.065Z,57.00
2023-04-19T03:30:54.101Z,57.85
2023-04-19T03:31:54.114Z,57.44
2023-04-19T03:32:54.092Z,61.40
2023-04-19T03:33:54.047Z,57.82
2023-04-19T03:34:54.034Z,55.42
2023-04-19T03:35:54.023Z,61.71
2023-04-19T03:36:54.009Z,59.73
2023-04-19T03:37:54.036Z,57.17
2023-04-19T03:38:53.998Z,58.40
2023-04-19T03:39:54.003Z,62.47
2023-04-19T03:40:53.976Z,57.32
2023-04-19T03:41:53.982Z,58.92
2023-04-19T03:42:53.985Z,59.92
2023-04-19T03:43:53.980Z,58.42
2023-04-19T03:44:53.953Z,64.21
2023-04-19T03:45:53.974Z,59.47
2023-04-19T03:46:53.934Z,59.67
2023-04-19T03:47:54.014Z,63.81
2023-04-19T03:48:53.984Z,64.43
2023-04-19T03:49:53.942Z,62.79
2023-04-19T03:50:53.979Z,61.36
2023-04-19T03:51:55.699Z,63.94
2023-04-19T03:52:53.882Z,56.98
2023-04-19T03:53:53.982Z,55.71
2023-04-19T03:54:53.885Z,58.60
2023-04-19T03:55:53.860Z,59.97
2023-04-19T03:56:53.862Z,57.43
2023-04-19T03:57:53.844Z,58.37
2023-04-19T03:58:54.281Z,63.79
2023-04-19T03:59:53.828Z,56.35
2023-04-19T04:00:53.832Z,57.03
2023-04-19T04:01:53.831Z,56.91
2023-04-19T04:02:54.055Z,63.16
2023-04-19T04:03:54.004Z,59.31
2023-04-19T04:04:53.878Z,56.24
2023-04-19T04:05:53.792Z,62.94
2023-04-19T04:06:53.774Z,60.28
2023-04-19T04:07:53.764Z,58.63
2023-04-19T04:08:53.794Z,59.86
2023-04-19T04:09:53.748Z,61.03
2023-04-19T04:10:53.745Z,60.32
2023-04-19T04:11:53.737Z,59.85
2023-04-19T04:12:53.731Z,65.00
2023-04-19T04:13:53.746Z,61.15
2023-04-19T04:14:53.746Z,62.63
2023-04-19T04:15:53.720Z,65.22
2023-04-19T04:16:53.701Z,63.59
2023-04-19T04:17:53.702Z,64.82
2023-04-19T04:18:53.728Z,61.82
2023-04-19T04:19:53.679Z,60.76
2023-04-19T04:20:53.661Z,60.94
2023-04-19T04:21:53.660Z,61.38
2023-04-19T04:22:53.649Z,59.30
2023-04-19T04:23:53.679Z,61.06
2023-04-19T04:24:53.629Z,63.25
2023-04-19T04:25:53.619Z,65.27
2023-04-19T04:26:53.623Z,60.36
2023-04-19T04:27:53.631Z,60.18
2023-04-19T04:28:53.598Z,61.98
2023-04-19T04:29:53.609Z,65.22
2023-04-19T04:30:53.642Z,61.27
2023-04-19T04:31:53.626Z,60.18
2023-04-19T04:32:53.631Z,64.22
2023-04-19T04:33:53.595Z,59.38
2023-04-19T04:34:53.588Z,60.40
2023-04-19T04:35:53.572Z,60.39
2023-04-19T04:36:54.556Z,60.04
2023-04-19T04:37:53.730Z,59.18
2023-04-19T04:38:53.543Z,58.69
2023-04-19T04:39:53.537Z,60.81
2023-04-19T04:40:53.566Z,64.80
2023-04-19T04:41:53.526Z,62.55
2023-04-19T04:42:53.514Z,59.97
2023-04-19T04:44:08.238Z,63.17
2023-04-19T04:44:55.506Z,61.45
2023-04-19T04:45:53.532Z,61.03
2023-04-19T04:46:53.536Z,60.99
2023-04-19T04:47:53.564Z,55.13
2023-04-19T04:48:53.493Z,58.97
2023-04-19T04:49:53.462Z,60.82
2023-04-19T04:50:53.454Z,60.26
2023-04-19T04:51:53.455Z,60.54
2023-04-19T04:52:53.435Z,62.70
2023-04-19T04:53:53.470Z,59.44
2023-04-19T04:54:53.421Z,60.44
2023-04-19T04:55:53.419Z,60.74
2023-04-19T04:56:53.415Z,59.72
2023-04-19T04:57:53.416Z,58.72
2023-04-19T04:58:53.424Z,63.91
2023-04-19T04:59:53.392Z,64.54
2023-04-19T05:00:53.414Z,60.50
2023-04-19T05:01:53.360Z,63.16
2023-04-19T05:02:53.495Z,62.28
2023-04-19T05:03:53.412Z,61.73
2023-04-19T05:04:53.341Z,65.33
2023-04-19T05:05:53.345Z,61.10
2023-04-19T05:06:53.328Z,61.47
2023-04-19T05:07:53.315Z,61.75
2023-04-19T05:08:53.349Z,59.68
2023-04-19T05:09:53.308Z,60.66
2023-04-19T05:11:27.640Z,60.41
2023-04-19T05:11:53.289Z,61.32
2023-04-19T05:12:53.282Z,60.44
2023-04-19T05:13:53.319Z,62.15
2023-04-19T05:14:53.325Z,56.63
2023-04-19T05:15:53.284Z,62.85
2023-04-19T05:16:53.263Z,63.41
2023-04-19T05:17:53.306Z,62.96
2023-04-19T05:18:53.280Z,61.62
2023-04-19T05:19:53.225Z,63.49
2023-04-19T05:20:53.247Z,66.83
2023-04-19T05:21:53.208Z,64.64
2023-04-19T05:22:53.199Z,62.25
2023-04-19T05:23:53.241Z,66.48
2023-04-19T05:24:53.189Z,62.41
2023-04-19T05:25:53.196Z,62.66
2023-04-19T05:26:53.171Z,60.32
2023-04-19T05:27:53.162Z,60.43
2023-04-19T05:28:53.198Z,67.28
2023-04-19T05:29:53.151Z,62.18
2023-04-19T05:30:53.138Z,60.65
2023-04-19T05:31:53.144Z,59.97
2023-04-19T05:32:53.165Z,62.38
2023-04-19T05:33:53.154Z,62.02
2023-04-19T05:34:53.136Z,63.87
2023-04-19T05:35:53.099Z,64.77
2023-04-19T05:36:53.119Z,64.44
2023-04-19T05:37:53.081Z,62.71
2023-04-19T05:38:53.103Z,61.95
2023-04-19T05:39:53.098Z,65.00
2023-04-19T05:40:53.055Z,61.44
2023-04-19T05:41:53.090Z,63.59
2023-04-19T05:42:53.763Z,62.41
2023-04-19T05:43:53.073Z,62.17
2023-04-19T05:44:53.029Z,60.59
2023-04-19T05:45:53.121Z,63.01
2023-04-19T05:46:53.055Z,64.93
2023-04-19T05:47:53.201Z,62.48
2023-04-19T05:48:53.026Z,60.46
2023-04-19T05:49:53.014Z,60.23
2023-04-19T05:50:53.021Z,60.27
2023-04-19T05:51:52.977Z,59.27
2023-04-19T05:52:52.969Z,61.16
2023-04-19T05:53:55.032Z,59.70
2023-04-19T05:54:52.953Z,61.68
2023-04-19T05:55:52.948Z,63.28
2023-04-19T05:56:52.943Z,63.37
2023-04-19T05:57:52.949Z,60.96
2023-04-19T05:58:52.950Z,62.93
2023-04-19T05:59:52.924Z,62.46
2023-04-19T06:00:52.916Z,63.29
2023-04-19T06:01:53.031Z,61.14
2023-04-19T06:02:52.974Z,61.66
2023-04-19T06:03:53.214Z,61.63
2023-04-19T06:04:52.928Z,59.32
2023-04-19T06:05:52.934Z,59.60
2023-04-19T06:06:52.847Z,58.61
2023-04-19T06:07:55.719Z,61.64
2023-04-19T06:08:55.164Z,60.84
2023-04-19T06:09:53.838Z,60.23
2023-04-19T06:10:57.056Z,62.53
2023-04-19T06:11:54.860Z,58.25
2023-04-19T06:12:52.816Z,63.49
2023-04-19T06:13:52.840Z,62.00
2023-04-19T06:14:52.808Z,61.75
2023-04-19T06:15:52.875Z,58.99
2023-04-19T06:16:52.828Z,63.40
2023-04-19T06:17:52.870Z,62.89
2023-04-19T06:18:52.763Z,64.17
2023-04-19T06:19:53.781Z,61.99
2023-04-19T06:20:52.752Z,63.87
2023-04-19T06:21:52.808Z,62.88
2023-04-19T06:22:52.745Z,61.58
2023-04-19T06:23:52.728Z,62.45
2023-04-19T06:24:52.753Z,63.74
2023-04-19T06:25:52.744Z,62.89
2023-04-19T06:26:52.699Z,61.06
2023-04-19T06:27:52.700Z,59.88
2023-04-19T06:28:52.698Z,62.62
2023-04-19T06:29:52.708Z,61.39
2023-04-19T06:30:52.685Z,61.62
2023-04-19T06:31:52.826Z,62.89
2023-04-19T06:32:52.685Z,62.45
2023-04-19T06:33:52.702Z,60.44
2023-04-19T06:34:52.674Z,62.16
2023-04-19T06:35:52.653Z,60.72
2023-04-19T06:36:52.635Z,62.24
2023-04-19T06:37:52.635Z,61.38
2023-04-19T06:38:52.617Z,60.57
2023-04-19T06:39:52.629Z,56.25
2023-04-19T06:40:52.602Z,59.77
2023-04-19T06:41:52.600Z,60.81
2023-04-19T06:42:52.583Z,56.42
2023-04-19T06:43:52.576Z,60.33
2023-04-19T06:44:52.631Z,60.93
2023-04-19T06:45:52.600Z,65.60
2023-04-19T06:46:52.566Z,61.74
2023-04-19T06:47:52.571Z,60.03
2023-04-19T06:48:52.548Z,59.34
2023-04-19T06:49:52.576Z,60.47
2023-04-19T06:50:52.529Z,61.07
2023-04-19T06:51:52.515Z,58.82
2023-04-19T06:52:52.513Z,58.85
2023-04-19T06:53:52.502Z,61.13
2023-04-19T06:54:52.521Z,61.02
2023-04-19T06:55:52.483Z,59.66
2023-04-19T06:56:52.503Z,60.17
2023-04-19T06:57:52.480Z,62.21
2023-04-19T06:58:52.462Z,62.07
2023-04-19T06:59:52.495Z,63.78
2023-04-19T07:00:52.578Z,63.84
2023-04-19T07:01:52.495Z,65.41
2023-04-19T07:02:52.694Z,60.98
2023-04-19T07:03:53.952Z,62.53
2023-04-19T07:04:52.586Z,60.77
2023-04-19T07:05:52.436Z,60.75
2023-04-19T07:06:52.416Z,63.60
2023-04-19T07:07:52.427Z,67.00
2023-04-19T07:08:52.381Z,62.79
2023-04-19T07:09:52.411Z,62.93
2023-04-19T07:10:52.374Z,58.78
2023-04-19T07:11:52.363Z,65.06
2023-04-19T07:12:52.380Z,63.31
2023-04-19T07:13:52.356Z,61.86
2023-04-19T07:14:52.359Z,64.52
2023-04-19T07:15:52.402Z,64.04
2023-04-19T07:16:52.773Z,61.37
2023-04-19T07:17:52.329Z,62.33
2023-04-19T07:18:52.309Z,62.19
2023-04-19T07:19:52.337Z,60.20
2023-04-19T07:20:52.318Z,63.96
2023-04-19T07:21:52.307Z,59.11
2023-04-19T07:22:52.296Z,58.82
2023-04-19T07:23:52.301Z,60.43
2023-04-19T07:24:52.286Z,61.94
2023-04-19T07:25:52.248Z,62.60
2023-04-19T07:26:52.254Z,61.41
2023-04-19T07:27:52.421Z,62.20
2023-04-19T07:28:52.243Z,64.61
2023-04-19T07:29:52.246Z,64.18
2023-04-19T07:30:52.231Z,63.89
2023-04-19T07:31:52.291Z,65.05
2023-04-19T07:32:52.266Z,67.57
2023-04-19T07:33:52.193Z,62.18
2023-04-19T07:34:52.218Z,58.60
2023-04-19T07:35:52.180Z,57.53
2023-04-19T07:36:52.188Z,58.59
2023-04-19T07:37:52.173Z,60.36
2023-04-19T07:38:52.144Z,59.61
2023-04-19T07:39:52.188Z,61.06
2023-04-19T07:40:52.153Z,58.39
2023-04-19T07:41:52.132Z,61.46
2023-04-19T07:42:52.134Z,59.96
2023-04-19T07:43:52.110Z,62.32
2023-04-19T07:44:52.126Z,64.42
2023-04-19T07:45:52.097Z,65.98
2023-04-19T07:46:52.167Z,64.10
2023-04-19T07:47:52.104Z,60.04
2023-04-19T07:48:52.092Z,59.68
2023-04-19T07:49:52.103Z,64.95
2023-04-19T07:50:52.068Z,59.87
2023-04-19T07:51:52.059Z,63.43
2023-04-19T07:52:52.048Z,61.30
2023-04-19T07:53:52.095Z,58.89
2023-04-19T07:54:52.069Z,60.53
2023-04-19T07:55:52.016Z,62.94
2023-04-19T07:56:52.032Z,68.93
2023-04-19T07:57:52.795Z,64.11
2023-04-19T07:59:04.370Z,65.83
2023-04-19T07:59:54.040Z,59.28
2023-04-19T08:00:52.036Z,62.83
2023-04-19T08:01:52.042Z,65.34
2023-04-19T08:02:52.810Z,66.13
2023-04-19T08:03:52.333Z,62.45
2023-04-19T08:04:52.166Z,58.89
2023-04-19T08:05:51.987Z,62.17
2023-04-19T08:06:51.934Z,59.60
2023-04-19T08:07:51.916Z,61.91
2023-04-19T08:08:51.925Z,63.31
2023-04-19T08:09:52.036Z,66.89
2023-04-19T08:10:51.923Z,65.40
2023-04-19T08:11:51.891Z,64.18
2023-04-19T08:13:05.158Z,66.19
2023-04-19T08:14:04.545Z,57.86
2023-04-19T08:15:02.726Z,59.85
2023-04-19T08:17:52.874Z,59.35
2023-04-19T08:18:51.849Z,61.65
2023-04-19T08:19:51.858Z,58.86
2023-04-19T08:20:51.828Z,60.95
2023-04-19T08:21:51.837Z,59.37
2023-04-19T08:22:51.836Z,60.92
2023-04-19T08:23:54.122Z,60.31
2023-04-19T08:24:51.853Z,58.91
2023-04-19T08:25:51.934Z,58.11
2023-04-19T08:26:51.816Z,57.44
2023-04-19T08:27:51.757Z,59.06
2023-04-19T08:28:52.769Z,64.13
2023-04-19T08:29:51.781Z,58.71
2023-04-19T08:30:51.818Z,62.52
2023-04-19T08:31:51.830Z,63.34
2023-04-19T08:32:51.750Z,64.97
2023-04-19T08:33:51.721Z,63.27
2023-04-19T08:34:51.722Z,61.15
2023-04-19T08:35:51.741Z,60.85
2023-04-19T08:37:03.379Z,58.59
2023-04-19T08:37:53.699Z,63.80
2023-04-19T08:39:04.230Z,62.68
2023-04-19T08:39:53.676Z,58.74
2023-04-19T08:40:51.693Z,57.27
2023-04-19T08:42:04.872Z,58.92
2023-04-19T08:42:53.657Z,60.55
2023-04-19T08:43:51.652Z,59.61
2023-04-19T08:45:09.317Z,63.61
2023-04-19T08:45:53.700Z,59.00
2023-04-19T08:46:51.623Z,60.48
2023-04-19T08:47:59.689Z,59.37
2023-04-19T08:48:53.653Z,59.72
2023-04-19T08:50:06.788Z,59.58
2023-04-19T08:51:04.507Z,62.12
2023-04-19T08:51:53.612Z,59.58
2023-04-19T08:52:57.134Z,62.57
2023-04-19T08:53:53.575Z,62.49
2023-04-19T08:54:51.564Z,62.77
2023-04-19T08:56:08.678Z,60.81
2023-04-19T08:56:53.551Z,63.40
2023-04-19T08:57:51.565Z,62.03
2023-04-19T08:59:07.503Z,62.31
2023-04-19T08:59:53.560Z,64.97
2023-04-19T09:00:51.516Z,63.68
2023-04-19T09:01:51.541Z,60.21
2023-04-19T09:02:51.693Z,66.88
2023-04-19T09:04:03.387Z,66.14
2023-04-19T09:04:53.963Z,67.15
2023-04-19T09:05:51.735Z,62.09
2023-04-19T09:06:51.469Z,67.67
2023-04-19T09:07:51.489Z,62.28
2023-04-19T09:08:51.452Z,61.32
2023-04-19T09:10:02.112Z,66.01
2023-04-19T09:10:53.476Z,69.78
2023-04-19T09:11:51.432Z,63.48
2023-04-19T09:12:51.435Z,66.90
2023-04-19T09:13:52.928Z,63.75
2023-04-19T09:15:01.199Z,61.09
2023-04-19T09:15:53.498Z,59.22
2023-04-19T09:16:51.392Z,62.44
2023-04-19T09:17:51.512Z,67.41
2023-04-19T09:18:59.780Z,65.57
2023-04-19T09:19:53.419Z,65.61
2023-04-19T09:20:51.390Z,58.02
2023-04-19T09:21:51.361Z,58.89
2023-04-19T09:22:51.341Z,58.26
2023-04-19T09:23:51.375Z,62.36
2023-04-19T09:25:27.699Z,66.07
2023-04-19T09:26:53.380Z,61.17
2023-04-19T09:27:51.309Z,63.14
2023-04-19T09:28:51.301Z,57.28
2023-04-19T09:29:51.290Z,59.76
2023-04-19T09:31:02.433Z,64.08
2023-04-19T09:31:53.605Z,64.21
2023-04-19T09:32:51.357Z,62.76
2023-04-19T09:33:51.272Z,65.77
2023-04-19T09:34:51.246Z,62.84
2023-04-19T09:35:51.267Z,64.91
2023-04-19T09:37:00.575Z,62.31
2023-04-19T09:38:04.724Z,68.72
2023-04-19T09:38:53.222Z,58.62
2023-04-19T09:39:51.240Z,61.17
2023-04-19T09:40:51.226Z,65.19
2023-04-19T09:41:51.201Z,67.19
2023-04-19T09:45:21.352Z,65.65
2023-04-19T09:45:53.171Z,69.14
2023-04-19T09:46:53.125Z,66.75
2023-04-19T09:47:52.198Z,61.82
2023-04-19T09:48:51.144Z,63.93
2023-04-19T09:49:51.437Z,64.18
2023-04-19T09:50:59.064Z,63.11
2023-04-19T09:51:53.116Z,59.36
2023-04-19T09:52:51.164Z,65.40
2023-04-19T09:53:51.114Z,64.89
2023-04-19T09:54:51.133Z,60.91
2023-04-19T09:56:00.502Z,62.44
2023-04-19T09:56:54.797Z,63.77
2023-04-19T09:57:51.075Z,71.85
2023-04-19T09:58:56.557Z,71.83
2023-04-19T09:59:53.089Z,65.97
2023-04-19T10:00:54.924Z,67.49
2023-04-19T10:01:53.068Z,66.16
2023-04-19T10:02:52.379Z,64.89
2023-04-19T10:03:52.759Z,62.02
2023-04-19T10:05:11.299Z,58.33
2023-04-19T10:05:53.023Z,58.02
2023-04-19T10:07:18.740Z,59.55
2023-04-19T10:07:55.699Z,58.06
2023-04-19T10:08:51.256Z,62.84
2023-04-19T10:09:53.619Z,60.05
2023-04-19T10:10:51.971Z,59.97
2023-04-19T10:11:54.201Z,58.02
2023-04-19T10:13:15.380Z,56.43
2023-04-19T10:13:52.968Z,59.55
2023-04-19T10:14:50.977Z,59.15
2023-04-19T10:15:55.489Z,59.22
2023-04-19T10:16:52.978Z,62.27
2023-04-19T10:17:50.981Z,62.76
2023-04-19T10:18:50.915Z,60.45
2023-04-19T10:19:50.947Z,60.26
2023-04-19T10:20:50.903Z,60.71
2023-04-19T10:21:50.893Z,59.44
2023-04-19T10:22:50.883Z,57.64
2023-04-19T10:23:50.897Z,58.75
2023-04-19T10:24:50.910Z,61.96
2023-04-19T10:25:50.864Z,60.71
2023-04-19T10:26:50.880Z,58.66
2023-04-19T10:27:50.842Z,56.50
2023-04-19T10:28:50.843Z,59.51
2023-04-19T10:29:50.863Z,63.23
2023-04-19T10:30:50.847Z,59.98
2023-04-19T10:31:50.834Z,62.14
2023-04-19T10:32:50.827Z,57.67
2023-04-19T10:33:50.809Z,60.83
2023-04-19T10:34:50.800Z,61.10
2023-04-19T10:35:50.820Z,60.67
2023-04-19T10:36:50.773Z,62.03
2023-04-19T10:37:50.775Z,55.74
2023-04-19T10:38:50.756Z,59.50
2023-04-19T10:39:50.750Z,57.78
2023-04-19T10:40:50.772Z,61.19
2023-04-19T10:41:50.736Z,61.93
2023-04-19T10:42:50.724Z,59.47
2023-04-19T10:43:50.720Z,59.54
2023-04-19T10:44:50.738Z,66.97
2023-04-19T10:45:50.751Z,59.67
2023-04-19T10:46:50.693Z,59.74
2023-04-19T10:47:50.732Z,62.18
2023-04-19T10:48:50.698Z,60.82
2023-04-19T10:49:50.671Z,64.32
2023-04-19T10:50:50.701Z,62.71
2023-04-19T10:51:50.664Z,59.90
2023-04-19T10:52:50.657Z,57.86
2023-04-19T10:53:50.658Z,62.24
2023-04-19T10:54:50.635Z,64.49
2023-04-19T10:55:50.654Z,60.72
2023-04-19T10:56:51.617Z,63.09
2023-04-19T10:57:50.616Z,63.24
2023-04-19T10:58:50.608Z,64.26
2023-04-19T10:59:50.598Z,64.04
2023-04-19T11:00:50.605Z,61.03
2023-04-19T11:01:50.697Z,64.41
2023-04-19T11:02:50.694Z,58.92
2023-04-19T11:03:50.731Z,57.47
2023-04-19T11:04:50.578Z,58.93
2023-04-19T11:05:50.584Z,64.66
2023-04-19T11:06:50.551Z,60.01
2023-04-19T11:07:50.550Z,58.66
2023-04-19T11:08:50.531Z,61.86
2023-04-19T11:09:50.516Z,62.20
2023-04-19T11:10:52.176Z,59.18
2023-04-19T11:12:23.252Z,59.16
2023-04-19T11:12:50.498Z,58.35
2023-04-19T11:13:50.492Z,61.70
2023-04-19T11:14:50.486Z,64.76
2023-04-19T11:15:50.497Z,66.21
2023-04-19T11:16:50.570Z,66.01
2023-04-19T11:18:00.790Z,64.32
2023-04-19T11:18:52.447Z,60.19
2023-04-19T11:19:50.451Z,59.37
2023-04-19T11:20:50.434Z,58.71
2023-04-19T11:21:50.459Z,59.69
2023-04-19T11:22:50.535Z,65.74
2023-04-19T11:23:50.419Z,61.66
2023-04-19T11:24:50.393Z,66.65
2023-04-19T11:25:50.381Z,64.45
2023-04-19T11:26:50.804Z,62.64
2023-04-19T11:27:50.381Z,61.09
2023-04-19T11:28:50.364Z,59.14
2023-04-19T11:29:50.357Z,56.55
2023-04-19T11:30:50.354Z,57.91
2023-04-19T11:31:50.419Z,62.44
2023-04-19T11:32:50.364Z,64.09
2023-04-19T11:33:50.327Z,64.30
2023-04-19T11:34:50.330Z,63.19
2023-04-19T11:35:50.341Z,65.63
2023-04-19T11:36:50.338Z,68.30
2023-04-19T11:37:50.304Z,64.86
2023-04-19T11:38:50.294Z,58.52
2023-04-19T11:39:50.280Z,60.89
2023-04-19T11:40:50.273Z,64.58
2023-04-19T11:41:50.320Z,58.98
2023-04-19T11:42:50.276Z,59.06
2023-04-19T11:43:50.250Z,54.33
2023-04-19T11:44:50.253Z,61.47
2023-04-19T11:45:50.252Z,68.90
2023-04-19T11:46:50.278Z,68.75
2023-04-19T11:47:50.327Z,64.38
2023-04-19T11:48:50.215Z,65.88
2023-04-19T11:49:50.208Z,62.11
2023-04-19T11:50:50.200Z,62.04
2023-04-19T11:51:50.231Z,65.33
2023-04-19T11:52:50.177Z,61.36
2023-04-19T11:53:50.179Z,64.16
2023-04-19T11:54:50.196Z,66.23
2023-04-19T11:55:50.156Z,65.78
2023-04-19T11:56:50.194Z,65.68
2023-04-19T11:57:50.164Z,71.65
2023-04-19T11:58:50.143Z,67.20
2023-04-19T11:59:50.146Z,65.79
2023-04-19T12:00:50.157Z,62.44
2023-04-19T12:01:50.160Z,65.74
2023-04-19T12:02:50.241Z,66.02
2023-04-19T12:03:50.277Z,63.40
2023-04-19T12:04:50.217Z,64.20
2023-04-19T12:05:50.145Z,67.53
2023-04-19T12:06:50.076Z,65.05
2023-04-19T12:07:50.093Z,62.76
2023-04-19T12:08:50.077Z,62.99
2023-04-19T12:09:50.113Z,58.89
2023-04-19T12:10:50.048Z,64.95
2023-04-19T12:11:50.134Z,66.48
2023-04-19T12:12:50.066Z,64.36
2023-04-19T12:13:50.020Z,65.50
2023-04-19T12:14:50.017Z,60.64
2023-04-19T12:15:50.097Z,59.44
2023-04-19T12:16:50.062Z,60.71
2023-04-19T12:17:56.967Z,63.94
2023-04-19T12:18:51.988Z,59.16
2023-04-19T12:19:49.990Z,65.04
2023-04-19T12:20:49.968Z,61.98
2023-04-19T12:21:49.980Z,68.05
2023-04-19T12:22:50.037Z,67.22
2023-04-19T12:23:49.971Z,67.51
2023-04-19T12:24:49.944Z,61.11
2023-04-19T12:25:49.940Z,67.41
2023-04-19T12:26:50.921Z,67.96
2023-04-19T12:27:49.960Z,64.82
2023-04-19T12:28:49.910Z,65.67
2023-04-19T12:29:49.914Z,63.72
2023-04-19T12:30:49.898Z,63.41
2023-04-19T12:31:49.945Z,62.68
2023-04-19T12:32:49.950Z,63.99
2023-04-19T12:33:49.864Z,64.88
2023-04-19T12:34:49.853Z,61.51
2023-04-19T12:35:49.848Z,60.52
2023-04-19T12:36:49.848Z,65.78
2023-04-19T12:37:49.857Z,70.85
2023-04-19T12:38:49.828Z,66.30
2023-04-19T12:39:49.815Z,65.41
2023-04-19T12:40:49.803Z,61.30
2023-04-19T12:41:50.844Z,65.78
2023-04-19T12:42:49.815Z,64.88
2023-04-19T12:43:49.784Z,63.04
2023-04-19T12:44:49.774Z,63.30
2023-04-19T12:45:49.789Z,60.36
2023-04-19T12:46:49.842Z,67.24
2023-04-19T12:47:49.907Z,67.39
2023-04-19T12:48:49.744Z,67.21
2023-04-19T12:49:49.740Z,70.37
2023-04-19T12:50:49.732Z,64.47
2023-04-19T12:51:49.729Z,60.16
2023-04-19T12:52:49.739Z,63.25
2023-04-19T12:53:49.708Z,62.38
2023-04-19T12:54:49.705Z,63.55
2023-04-19T12:55:49.684Z,64.49
2023-04-19T12:56:49.684Z,64.79
2023-04-19T12:57:49.709Z,61.57